sensor_id;sensor_type;location;lat;lon;timestamp;temperature;humidity
584;HTU21D;27024;54.068;12.116;2023-03-16T00:02:04;1.99;107.04
584;HTU21D;27024;54.068;12.116;2023-03-16T00:04:32;1.98;107.24
584;HTU21D;27024;54.068;12.116;2023-03-16T00:07:04;1.96;107.17
584;HTU21D;27024;54.068;12.116;2023-03-16T00:09:31;1.96;107.06
584;HTU21D;27024;54.068;12.116;2023-03-16T00:12:00;1.91;107.48
584;HTU21D;27024;54.068;12.116;2023-03-16T00:14:30;1.93;107.33
584;HTU21D;27024;54.068;12.116;2023-03-16T00:16:57;1.92;107.40
584;HTU21D;27024;54.068;12.116;2023-03-16T00:19:24;1.86;107.72
584;HTU21D;27024;54.068;12.116;2023-03-16T00:21:51;1.85;107.69
584;HTU21D;27024;54.068;12.116;2023-03-16T00:24:18;1.84;107.77
584;HTU21D;27024;54.068;12.116;2023-03-16T00:26:46;1.84;107.88
584;HTU21D;27024;54.068;12.116;2023-03-16T00:29:13;1.85;107.67
584;HTU21D;27024;54.068;12.116;2023-03-16T00:31:41;1.94;107.54
584;HTU21D;27024;54.068;12.116;2023-03-16T00:34:11;1.81;107.91
584;HTU21D;27024;54.068;12.116;2023-03-16T00:36:38;1.77;108.04
584;HTU21D;27024;54.068;12.116;2023-03-16T00:39:05;1.75;108.31
584;HTU21D;27024;54.068;12.116;2023-03-16T00:41:32;1.78;107.80
584;HTU21D;27024;54.068;12.116;2023-03-16T00:44:06;1.81;107.87
584;HTU21D;27024;54.068;12.116;2023-03-16T00:46:35;1.75;107.82
584;HTU21D;27024;54.068;12.116;2023-03-16T00:49:02;1.78;108.06
584;HTU21D;27024;54.068;12.116;2023-03-16T00:51:29;1.75;107.95
584;HTU21D;27024;54.068;12.116;2023-03-16T00:53:59;1.62;108.64
584;HTU21D;27024;54.068;12.116;2023-03-16T00:56:26;1.65;108.19
584;HTU21D;27024;54.068;12.116;2023-03-16T00:58:53;1.73;107.82
584;HTU21D;27024;54.068;12.116;2023-03-16T01:01:23;1.76;107.38
584;HTU21D;27024;54.068;12.116;2023-03-16T01:03:50;1.71;107.40
584;HTU21D;27024;54.068;12.116;2023-03-16T01:06:17;1.73;107.56
584;HTU21D;27024;54.068;12.116;2023-03-16T01:08:46;1.64;107.72
584;HTU21D;27024;54.068;12.116;2023-03-16T01:11:15;1.66;107.89
584;HTU21D;27024;54.068;12.116;2023-03-16T01:13:43;1.64;107.71
584;HTU21D;27024;54.068;12.116;2023-03-16T01:16:13;1.64;107.68
584;HTU21D;27024;54.068;12.116;2023-03-16T01:18:40;1.65;107.68
584;HTU21D;27024;54.068;12.116;2023-03-16T01:21:08;1.66;107.74
584;HTU21D;27024;54.068;12.116;2023-03-16T01:23:36;1.67;107.62
584;HTU21D;27024;54.068;12.116;2023-03-16T01:26:03;1.67;107.58
584;HTU21D;27024;54.068;12.116;2023-03-16T01:28:31;1.68;107.65
584;HTU21D;27024;54.068;12.116;2023-03-16T01:31:07;1.71;107.49
584;HTU21D;27024;54.068;12.116;2023-03-16T01:33:35;1.72;107.56
584;HTU21D;27024;54.068;12.116;2023-03-16T01:36:04;1.71;107.57
584;HTU21D;27024;54.068;12.116;2023-03-16T01:38:31;1.69;107.71
584;HTU21D;27024;54.068;12.116;2023-03-16T01:41:00;1.63;107.94
584;HTU21D;27024;54.068;12.116;2023-03-16T01:43:29;1.67;108.00
584;HTU21D;27024;54.068;12.116;2023-03-16T01:51:27;1.63;107.80
584;HTU21D;27024;54.068;12.116;2023-03-16T01:54:08;1.58;108.20
584;HTU21D;27024;54.068;12.116;2023-03-16T01:59:50;1.63;108.08
584;HTU21D;27024;54.068;12.116;2023-03-16T02:02:19;1.61;108.35
584;HTU21D;27024;54.068;12.116;2023-03-16T02:07:33;1.56;108.54
584;HTU21D;27024;54.068;12.116;2023-03-16T02:10:01;1.61;108.30
584;HTU21D;27024;54.068;12.116;2023-03-16T02:12:29;1.64;108.11
584;HTU21D;27024;54.068;12.116;2023-03-16T02:14:56;1.62;108.22
584;HTU21D;27024;54.068;12.116;2023-03-16T02:17:26;1.54;108.73
584;HTU21D;27024;54.068;12.116;2023-03-16T02:22:51;1.54;108.70
584;HTU21D;27024;54.068;12.116;2023-03-16T02:25:23;1.56;108.60
584;HTU21D;27024;54.068;12.116;2023-03-16T02:28:02;1.49;109.07
584;HTU21D;27024;54.068;12.116;2023-03-16T02:30:29;1.54;108.83
584;HTU21D;27024;54.068;12.116;2023-03-16T02:32:57;1.54;108.50
584;HTU21D;27024;54.068;12.116;2023-03-16T02:35:24;1.56;108.61
584;HTU21D;27024;54.068;12.116;2023-03-16T02:37:51;1.58;108.49
584;HTU21D;27024;54.068;12.116;2023-03-16T02:40:30;1.65;108.09
584;HTU21D;27024;54.068;12.116;2023-03-16T02:43:14;1.65;107.91
584;HTU21D;27024;54.068;12.116;2023-03-16T02:45:45;1.61;108.09
584;HTU21D;27024;54.068;12.116;2023-03-16T02:48:35;1.55;108.45
584;HTU21D;27024;54.068;12.116;2023-03-16T02:51:03;1.57;108.35
584;HTU21D;27024;54.068;12.116;2023-03-16T02:53:30;1.43;108.59
584;HTU21D;27024;54.068;12.116;2023-03-16T02:55:57;1.35;109.10
584;HTU21D;27024;54.068;12.116;2023-03-16T02:58:24;1.24;109.63
584;HTU21D;27024;54.068;12.116;2023-03-16T03:00:51;1.17;109.94
584;HTU21D;27024;54.068;12.116;2023-03-16T03:03:17;1.29;109.36
584;HTU21D;27024;54.068;12.116;2023-03-16T03:05:44;1.24;109.52
584;HTU21D;27024;54.068;12.116;2023-03-16T03:08:11;1.18;109.72
584;HTU21D;27024;54.068;12.116;2023-03-16T03:10:38;1.14;109.92
584;HTU21D;27024;54.068;12.116;2023-03-16T03:13:06;1.01;110.20
584;HTU21D;27024;54.068;12.116;2023-03-16T03:15:34;0.88;110.83
584;HTU21D;27024;54.068;12.116;2023-03-16T03:18:01;0.84;110.69
584;HTU21D;27024;54.068;12.116;2023-03-16T03:20:28;0.64;111.10
584;HTU21D;27024;54.068;12.116;2023-03-16T03:22:56;0.58;111.49
584;HTU21D;27024;54.068;12.116;2023-03-16T03:25:23;0.51;111.71
584;HTU21D;27024;54.068;12.116;2023-03-16T03:27:50;0.53;111.57
584;HTU21D;27024;54.068;12.116;2023-03-16T03:30:23;0.44;111.98
584;HTU21D;27024;54.068;12.116;2023-03-16T03:32:50;0.60;111.84
584;HTU21D;27024;54.068;12.116;2023-03-16T03:35:19;0.55;111.81
584;HTU21D;27024;54.068;12.116;2023-03-16T03:37:46;0.51;112.01
584;HTU21D;27024;54.068;12.116;2023-03-16T03:40:15;0.53;111.99
584;HTU21D;27024;54.068;12.116;2023-03-16T03:42:43;0.48;112.71
584;HTU21D;27024;54.068;12.116;2023-03-16T03:45:10;0.59;112.03
584;HTU21D;27024;54.068;12.116;2023-03-16T03:47:42;0.55;111.90
584;HTU21D;27024;54.068;12.116;2023-03-16T03:50:11;0.50;112.29
584;HTU21D;27024;54.068;12.116;2023-03-16T03:52:38;0.43;112.81
584;HTU21D;27024;54.068;12.116;2023-03-16T03:55:05;0.43;112.68
584;HTU21D;27024;54.068;12.116;2023-03-16T03:57:32;0.44;112.58
584;HTU21D;27024;54.068;12.116;2023-03-16T03:59:59;0.48;112.10
584;HTU21D;27024;54.068;12.116;2023-03-16T04:02:26;0.44;112.18
584;HTU21D;27024;54.068;12.116;2023-03-16T04:04:54;0.43;112.11
584;HTU21D;27024;54.068;12.116;2023-03-16T04:07:20;0.35;112.26
584;HTU21D;27024;54.068;12.116;2023-03-16T04:09:47;0.21;113.22
584;HTU21D;27024;54.068;12.116;2023-03-16T04:12:14;0.08;113.45
584;HTU21D;27024;54.068;12.116;2023-03-16T04:14:41;0.09;113.32
584;HTU21D;27024;54.068;12.116;2023-03-16T04:17:09;0.08;113.35
584;HTU21D;27024;54.068;12.116;2023-03-16T04:19:35;0.01;113.35
584;HTU21D;27024;54.068;12.116;2023-03-16T04:22:02;-0.05;113.51
584;HTU21D;27024;54.068;12.116;2023-03-16T04:24:29;-0.02;113.38
584;HTU21D;27024;54.068;12.116;2023-03-16T04:27:00;-0.06;113.39
584;HTU21D;27024;54.068;12.116;2023-03-16T04:29:28;-0.07;113.52
584;HTU21D;27024;54.068;12.116;2023-03-16T04:31:54;-0.23;113.39
584;HTU21D;27024;54.068;12.116;2023-03-16T04:34:21;-0.23;113.67
584;HTU21D;27024;54.068;12.116;2023-03-16T04:36:53;-0.25;113.92
584;HTU21D;27024;54.068;12.116;2023-03-16T04:39:20;-0.24;113.99
584;HTU21D;27024;54.068;12.116;2023-03-16T04:41:47;-0.21;113.67
584;HTU21D;27024;54.068;12.116;2023-03-16T04:44:14;-0.28;113.85
584;HTU21D;27024;54.068;12.116;2023-03-16T04:46:40;-0.26;113.96
584;HTU21D;27024;54.068;12.116;2023-03-16T04:49:08;-0.28;113.88
584;HTU21D;27024;54.068;12.116;2023-03-16T04:51:36;-0.30;114.10
584;HTU21D;27024;54.068;12.116;2023-03-16T04:54:03;-0.29;114.10
584;HTU21D;27024;54.068;12.116;2023-03-16T04:56:30;-0.29;114.07
584;HTU21D;27024;54.068;12.116;2023-03-16T04:58:57;-0.32;114.33
584;HTU21D;27024;54.068;12.116;2023-03-16T05:01:24;-0.36;114.24
584;HTU21D;27024;54.068;12.116;2023-03-16T05:03:50;1.12;118.58
584;HTU21D;27024;54.068;12.116;2023-03-16T05:06:18;-0.09;114.79
584;HTU21D;27024;54.068;12.116;2023-03-16T05:08:45;-0.34;115.65
584;HTU21D;27024;54.068;12.116;2023-03-16T05:11:12;1.75;118.99
584;HTU21D;27024;54.068;12.116;2023-03-16T05:13:39;0.40;111.91
584;HTU21D;27024;54.068;12.116;2023-03-16T05:16:06;-0.08;113.77
584;HTU21D;27024;54.068;12.116;2023-03-16T05:18:33;-0.23;114.59
584;HTU21D;27024;54.068;12.116;2023-03-16T05:20:59;-0.31;115.10
584;HTU21D;27024;54.068;12.116;2023-03-16T05:23:26;-0.15;115.12
584;HTU21D;27024;54.068;12.116;2023-03-16T05:25:53;-0.12;114.79
584;HTU21D;27024;54.068;12.116;2023-03-16T05:28:20;-0.05;114.04
584;HTU21D;27024;54.068;12.116;2023-03-16T05:30:46;-0.24;113.57
584;HTU21D;27024;54.068;12.116;2023-03-16T05:33:13;-0.36;113.90
584;HTU21D;27024;54.068;12.116;2023-03-16T05:35:40;-0.40;114.00
584;HTU21D;27024;54.068;12.116;2023-03-16T05:38:08;-0.42;113.90
584;HTU21D;27024;54.068;12.116;2023-03-16T05:40:35;-0.42;114.19
584;HTU21D;27024;54.068;12.116;2023-03-16T05:43:03;-0.46;114.16
584;HTU21D;27024;54.068;12.116;2023-03-16T05:45:30;-0.37;114.12
584;HTU21D;27024;54.068;12.116;2023-03-16T05:47:57;-0.29;114.07
584;HTU21D;27024;54.068;12.116;2023-03-16T05:50:24;-0.15;113.90
584;HTU21D;27024;54.068;12.116;2023-03-16T05:52:52;-0.08;113.74
584;HTU21D;27024;54.068;12.116;2023-03-16T05:55:19;0.06;112.64
584;HTU21D;27024;54.068;12.116;2023-03-16T05:57:46;0.27;112.45
584;HTU21D;27024;54.068;12.116;2023-03-16T06:00:13;0.42;112.18
584;HTU21D;27024;54.068;12.116;2023-03-16T06:02:43;0.78;110.41
584;HTU21D;27024;54.068;12.116;2023-03-16T06:05:10;0.62;110.53
584;HTU21D;27024;54.068;12.116;2023-03-16T06:07:37;0.39;111.45
584;HTU21D;27024;54.068;12.116;2023-03-16T06:10:05;0.47;112.02
584;HTU21D;27024;54.068;12.116;2023-03-16T06:12:32;0.51;112.13
584;HTU21D;27024;54.068;12.116;2023-03-16T06:15:00;0.55;111.79
584;HTU21D;27024;54.068;12.116;2023-03-16T06:17:27;0.73;111.41
584;HTU21D;27024;54.068;12.116;2023-03-16T06:19:54;0.76;111.07
584;HTU21D;27024;54.068;12.116;2023-03-16T06:22:21;0.76;111.49
584;HTU21D;27024;54.068;12.116;2023-03-16T06:24:50;0.79;111.54
584;HTU21D;27024;54.068;12.116;2023-03-16T06:27:18;0.99;111.06
584;HTU21D;27024;54.068;12.116;2023-03-16T06:29:46;1.10;110.28
584;HTU21D;27024;54.068;12.116;2023-03-16T06:32:13;1.13;110.35
584;HTU21D;27024;54.068;12.116;2023-03-16T06:34:40;1.38;109.20
584;HTU21D;27024;54.068;12.116;2023-03-16T06:37:07;1.34;108.01
584;HTU21D;27024;54.068;12.116;2023-03-16T06:39:34;1.43;108.29
584;HTU21D;27024;54.068;12.116;2023-03-16T06:42:00;1.70;107.82
584;HTU21D;27024;54.068;12.116;2023-03-16T06:44:30;2.05;106.60
584;HTU21D;27024;54.068;12.116;2023-03-16T06:46:57;2.10;105.85
584;HTU21D;27024;54.068;12.116;2023-03-16T06:49:24;2.26;105.21
584;HTU21D;27024;54.068;12.116;2023-03-16T06:51:51;2.38;104.80
584;HTU21D;27024;54.068;12.116;2023-03-16T06:54:18;2.55;104.12
584;HTU21D;27024;54.068;12.116;2023-03-16T06:56:44;2.94;102.92
584;HTU21D;27024;54.068;12.116;2023-03-16T06:59:12;3.15;101.50
584;HTU21D;27024;54.068;12.116;2023-03-16T07:01:38;3.31;100.78
584;HTU21D;27024;54.068;12.116;2023-03-16T07:04:05;3.23;101.41
584;HTU21D;27024;54.068;12.116;2023-03-16T07:06:33;3.36;100.77
584;HTU21D;27024;54.068;12.116;2023-03-16T07:09:00;3.54;98.72
584;HTU21D;27024;54.068;12.116;2023-03-16T07:11:27;3.73;98.20
584;HTU21D;27024;54.068;12.116;2023-03-16T07:13:54;3.72;97.03
584;HTU21D;27024;54.068;12.116;2023-03-16T07:16:21;3.70;97.63
584;HTU21D;27024;54.068;12.116;2023-03-16T07:18:48;3.77;97.41
584;HTU21D;27024;54.068;12.116;2023-03-16T07:21:14;3.83;98.44
584;HTU21D;27024;54.068;12.116;2023-03-16T07:23:41;3.91;96.94
584;HTU21D;27024;54.068;12.116;2023-03-16T07:26:08;3.93;97.08
584;HTU21D;27024;54.068;12.116;2023-03-16T07:28:35;3.77;97.56
584;HTU21D;27024;54.068;12.116;2023-03-16T07:31:02;3.73;98.05
584;HTU21D;27024;54.068;12.116;2023-03-16T07:33:31;3.48;99.53
584;HTU21D;27024;54.068;12.116;2023-03-16T07:35:59;3.54;98.79
584;HTU21D;27024;54.068;12.116;2023-03-16T07:38:26;3.52;99.03
584;HTU21D;27024;54.068;12.116;2023-03-16T07:40:53;4.00;97.47
584;HTU21D;27024;54.068;12.116;2023-03-16T07:43:19;3.93;97.71
584;HTU21D;27024;54.068;12.116;2023-03-16T07:45:50;4.23;96.12
584;HTU21D;27024;54.068;12.116;2023-03-16T07:48:18;4.02;95.59
584;HTU21D;27024;54.068;12.116;2023-03-16T07:50:48;4.21;95.81
584;HTU21D;27024;54.068;12.116;2023-03-16T07:53:15;4.45;94.56
584;HTU21D;27024;54.068;12.116;2023-03-16T07:55:43;4.16;96.35
584;HTU21D;27024;54.068;12.116;2023-03-16T07:58:10;4.61;93.99
584;HTU21D;27024;54.068;12.116;2023-03-16T08:00:38;4.60;93.11
584;HTU21D;27024;54.068;12.116;2023-03-16T08:03:05;4.66;93.60
584;HTU21D;27024;54.068;12.116;2023-03-16T08:05:32;4.76;93.72
584;HTU21D;27024;54.068;12.116;2023-03-16T08:07:59;4.94;93.26
584;HTU21D;27024;54.068;12.116;2023-03-16T08:10:29;4.96;94.04
584;HTU21D;27024;54.068;12.116;2023-03-16T08:12:57;5.05;92.19
584;HTU21D;27024;54.068;12.116;2023-03-16T08:15:24;5.18;91.91
584;HTU21D;27024;54.068;12.116;2023-03-16T08:17:51;5.12;93.00
584;HTU21D;27024;54.068;12.116;2023-03-16T08:20:18;5.40;92.81
584;HTU21D;27024;54.068;12.116;2023-03-16T08:22:45;5.33;93.64
584;HTU21D;27024;54.068;12.116;2023-03-16T08:25:13;5.56;91.57
584;HTU21D;27024;54.068;12.116;2023-03-16T08:27:40;5.85;90.10
584;HTU21D;27024;54.068;12.116;2023-03-16T08:30:10;6.01;89.50
584;HTU21D;27024;54.068;12.116;2023-03-16T08:32:38;6.42;87.58
584;HTU21D;27024;54.068;12.116;2023-03-16T08:35:14;6.79;86.66
584;HTU21D;27024;54.068;12.116;2023-03-16T08:37:42;7.15;84.94
584;HTU21D;27024;54.068;12.116;2023-03-16T08:40:10;7.04;84.50
584;HTU21D;27024;54.068;12.116;2023-03-16T08:42:39;7.39;81.76
584;HTU21D;27024;54.068;12.116;2023-03-16T08:45:08;7.38;84.63
584;HTU21D;27024;54.068;12.116;2023-03-16T08:47:39;7.39;82.05
584;HTU21D;27024;54.068;12.116;2023-03-16T08:50:07;7.97;78.92
584;HTU21D;27024;54.068;12.116;2023-03-16T08:52:34;8.36;78.43
584;HTU21D;27024;54.068;12.116;2023-03-16T08:55:03;8.19;76.91
584;HTU21D;27024;54.068;12.116;2023-03-16T08:57:32;8.55;74.87
584;HTU21D;27024;54.068;12.116;2023-03-16T08:59:59;8.50;73.98
584;HTU21D;27024;54.068;12.116;2023-03-16T09:02:27;9.53;70.10
584;HTU21D;27024;54.068;12.116;2023-03-16T09:04:54;9.51;65.78
584;HTU21D;27024;54.068;12.116;2023-03-16T09:07:21;9.38;67.85
584;HTU21D;27024;54.068;12.116;2023-03-16T09:09:49;9.59;67.62
584;HTU21D;27024;54.068;12.116;2023-03-16T09:12:19;8.83;67.71
584;HTU21D;27024;54.068;12.116;2023-03-16T09:14:47;9.55;65.80
584;HTU21D;27024;54.068;12.116;2023-03-16T09:17:14;9.26;65.03
584;HTU21D;27024;54.068;12.116;2023-03-16T09:19:44;9.63;62.89
584;HTU21D;27024;54.068;12.116;2023-03-16T09:22:19;9.00;65.64
584;HTU21D;27024;54.068;12.116;2023-03-16T09:24:47;10.15;61.86
584;HTU21D;27024;54.068;12.116;2023-03-16T09:27:15;10.46;60.02
584;HTU21D;27024;54.068;12.116;2023-03-16T09:29:42;11.02;58.31
584;HTU21D;27024;54.068;12.116;2023-03-16T09:32:09;11.33;56.39
584;HTU21D;27024;54.068;12.116;2023-03-16T09:34:36;11.51;51.99
584;HTU21D;27024;54.068;12.116;2023-03-16T09:37:03;12.37;51.16
584;HTU21D;27024;54.068;12.116;2023-03-16T09:39:30;12.41;51.25
584;HTU21D;27024;54.068;12.116;2023-03-16T09:42:08;12.28;49.75
584;HTU21D;27024;54.068;12.116;2023-03-16T09:47:12;12.33;46.10
584;HTU21D;27024;54.068;12.116;2023-03-16T09:49:48;11.67;49.24
584;HTU21D;27024;54.068;12.116;2023-03-16T09:54:58;11.67;49.38
584;HTU21D;27024;54.068;12.116;2023-03-16T09:57:30;11.70;50.26
584;HTU21D;27024;54.068;12.116;2023-03-16T10:05:26;12.32;46.10
584;HTU21D;27024;54.068;12.116;2023-03-16T10:08:18;12.66;46.06
584;HTU21D;27024;54.068;12.116;2023-03-16T10:13:57;12.17;46.70
584;HTU21D;27024;54.068;12.116;2023-03-16T10:16:39;11.69;47.69
584;HTU21D;27024;54.068;12.116;2023-03-16T10:19:17;11.62;45.99
584;HTU21D;27024;54.068;12.116;2023-03-16T10:21:46;11.78;47.73
584;HTU21D;27024;54.068;12.116;2023-03-16T10:26:55;12.61;41.56
584;HTU21D;27024;54.068;12.116;2023-03-16T10:29:31;12.91;43.35
584;HTU21D;27024;54.068;12.116;2023-03-16T10:32:10;13.38;39.97
584;HTU21D;27024;54.068;12.116;2023-03-16T10:34:37;13.50;38.99
584;HTU21D;27024;54.068;12.116;2023-03-16T10:37:04;13.71;40.55
584;HTU21D;27024;54.068;12.116;2023-03-16T10:39:35;14.14;36.59
584;HTU21D;27024;54.068;12.116;2023-03-16T10:42:02;13.45;38.70
584;HTU21D;27024;54.068;12.116;2023-03-16T10:44:29;13.58;38.66
584;HTU21D;27024;54.068;12.116;2023-03-16T10:47:02;13.35;39.36
584;HTU21D;27024;54.068;12.116;2023-03-16T10:49:41;13.23;37.85
584;HTU21D;27024;54.068;12.116;2023-03-16T10:54:40;12.64;37.83
584;HTU21D;27024;54.068;12.116;2023-03-16T11:00:34;13.27;37.85
584;HTU21D;27024;54.068;12.116;2023-03-16T11:02:48;13.46;36.29
584;HTU21D;27024;54.068;12.116;2023-03-16T11:08:01;13.49;34.67
584;HTU21D;27024;54.068;12.116;2023-03-16T11:10:33;14.63;33.80
584;HTU21D;27024;54.068;12.116;2023-03-16T11:13:19;14.79;31.32
584;HTU21D;27024;54.068;12.116;2023-03-16T11:15:54;14.49;31.64
584;HTU21D;27024;54.068;12.116;2023-03-16T11:18:34;13.61;32.96
584;HTU21D;27024;54.068;12.116;2023-03-16T11:21:15;13.12;35.57
584;HTU21D;27024;54.068;12.116;2023-03-16T11:23:47;13.25;34.05
584;HTU21D;27024;54.068;12.116;2023-03-16T11:26:20;13.98;35.17
584;HTU21D;27024;54.068;12.116;2023-03-16T11:29:14;13.68;33.40
584;HTU21D;27024;54.068;12.116;2023-03-16T11:31:51;13.36;33.44
584;HTU21D;27024;54.068;12.116;2023-03-16T11:34:30;13.79;33.31
584;HTU21D;27024;54.068;12.116;2023-03-16T11:42:32;13.43;33.15
584;HTU21D;27024;54.068;12.116;2023-03-16T11:45:27;14.10;32.22
584;HTU21D;27024;54.068;12.116;2023-03-16T11:50:42;14.49;29.48
584;HTU21D;27024;54.068;12.116;2023-03-16T11:53:34;14.52;29.24
584;HTU21D;27024;54.068;12.116;2023-03-16T11:56:16;14.24;29.45
584;HTU21D;27024;54.068;12.116;2023-03-16T11:59:00;13.88;29.74
584;HTU21D;27024;54.068;12.116;2023-03-16T12:18:33;15.49;27.71
584;HTU21D;27024;54.068;12.116;2023-03-16T12:21:05;14.13;27.14
584;HTU21D;27024;54.068;12.116;2023-03-16T12:23:51;14.01;29.45
584;HTU21D;27024;54.068;12.116;2023-03-16T12:26:20;13.46;23.66
584;HTU21D;27024;54.068;12.116;2023-03-16T12:28:50;13.17;25.40
584;HTU21D;27024;54.068;12.116;2023-03-16T12:31:34;11.94;26.91
584;HTU21D;27024;54.068;12.116;2023-03-16T12:37:08;11.71;26.63
584;HTU21D;27024;54.068;12.116;2023-03-16T12:50:55;11.45;30.42
584;HTU21D;27024;54.068;12.116;2023-03-16T12:53:43;11.47;29.45
584;HTU21D;27024;54.068;12.116;2023-03-16T12:56:15;12.07;29.71
584;HTU21D;27024;54.068;12.116;2023-03-16T12:58:48;11.83;29.87
584;HTU21D;27024;54.068;12.116;2023-03-16T13:01:17;11.74;31.45
584;HTU21D;27024;54.068;12.116;2023-03-16T13:03:48;12.36;31.09
584;HTU21D;27024;54.068;12.116;2023-03-16T13:06:18;12.19;30.58
584;HTU21D;27024;54.068;12.116;2023-03-16T13:08:56;12.10;30.14
584;HTU21D;27024;54.068;12.116;2023-03-16T13:11:26;12.03;30.00
584;HTU21D;27024;54.068;12.116;2023-03-16T13:16:32;12.26;29.89
584;HTU21D;27024;54.068;12.116;2023-03-16T13:19:27;12.02;29.70
584;HTU21D;27024;54.068;12.116;2023-03-16T13:22:18;11.74;30.18
584;HTU21D;27024;54.068;12.116;2023-03-16T13:25:22;12.55;29.42
584;HTU21D;27024;54.068;12.116;2023-03-16T13:27:53;12.28;30.14
584;HTU21D;27024;54.068;12.116;2023-03-16T13:30:32;12.40;29.17
584;HTU21D;27024;54.068;12.116;2023-03-16T13:35:40;12.57;30.12
584;HTU21D;27024;54.068;12.116;2023-03-16T13:38:19;12.99;30.29
584;HTU21D;27024;54.068;12.116;2023-03-16T13:40:50;12.49;30.44
584;HTU21D;27024;54.068;12.116;2023-03-16T13:43:22;12.91;29.09
584;HTU21D;27024;54.068;12.116;2023-03-16T13:45:49;12.62;30.25
584;HTU21D;27024;54.068;12.116;2023-03-16T13:48:16;12.70;28.08
584;HTU21D;27024;54.068;12.116;2023-03-16T13:50:56;11.89;27.45
584;HTU21D;27024;54.068;12.116;2023-03-16T13:53:29;11.91;28.89
584;HTU21D;27024;54.068;12.116;2023-03-16T13:55:58;12.15;27.37
584;HTU21D;27024;54.068;12.116;2023-03-16T13:58:30;12.52;29.77
584;HTU21D;27024;54.068;12.116;2023-03-16T14:01:03;12.26;29.27
584;HTU21D;27024;54.068;12.116;2023-03-16T14:03:36;12.59;27.43
584;HTU21D;27024;54.068;12.116;2023-03-16T14:06:05;13.11;27.40
584;HTU21D;27024;54.068;12.116;2023-03-16T14:08:33;14.15;26.92
584;HTU21D;27024;54.068;12.116;2023-03-16T14:11:00;13.65;23.34
584;HTU21D;27024;54.068;12.116;2023-03-16T14:15:56;13.15;22.46
584;HTU21D;27024;54.068;12.116;2023-03-16T14:18:45;13.38;21.37
584;HTU21D;27024;54.068;12.116;2023-03-16T14:21:20;13.36;21.85
584;HTU21D;27024;54.068;12.116;2023-03-16T14:23:52;13.91;19.96
584;HTU21D;27024;54.068;12.116;2023-03-16T14:26:19;13.94;21.07
584;HTU21D;27024;54.068;12.116;2023-03-16T14:28:54;13.19;21.25
584;HTU21D;27024;54.068;12.116;2023-03-16T14:31:34;13.84;20.53
584;HTU21D;27024;54.068;12.116;2023-03-16T14:34:03;13.86;21.24
584;HTU21D;27024;54.068;12.116;2023-03-16T14:36:36;14.10;21.57
584;HTU21D;27024;54.068;12.116;2023-03-16T14:39:15;14.03;23.02
584;HTU21D;27024;54.068;12.116;2023-03-16T14:41:49;13.78;24.44
584;HTU21D;27024;54.068;12.116;2023-03-16T14:44:29;14.07;25.15
584;HTU21D;27024;54.068;12.116;2023-03-16T14:46:58;13.63;26.01
584;HTU21D;27024;54.068;12.116;2023-03-16T14:49:36;14.72;24.51
584;HTU21D;27024;54.068;12.116;2023-03-16T14:52:09;14.19;26.14
584;HTU21D;27024;54.068;12.116;2023-03-16T14:54:40;13.71;29.00
584;HTU21D;27024;54.068;12.116;2023-03-16T14:57:15;12.88;26.29
584;HTU21D;27024;54.068;12.116;2023-03-16T14:59:42;12.67;26.52
584;HTU21D;27024;54.068;12.116;2023-03-16T15:02:15;12.36;28.29
584;HTU21D;27024;54.068;12.116;2023-03-16T15:04:43;11.77;28.42
584;HTU21D;27024;54.068;12.116;2023-03-16T15:07:21;12.01;27.83
584;HTU21D;27024;54.068;12.116;2023-03-16T15:09:51;11.51;26.91
584;HTU21D;27024;54.068;12.116;2023-03-16T15:12:21;11.37;28.59
584;HTU21D;27024;54.068;12.116;2023-03-16T15:14:50;11.37;26.66
584;HTU21D;27024;54.068;12.116;2023-03-16T15:17:35;11.15;27.00
584;HTU21D;27024;54.068;12.116;2023-03-16T15:20:02;10.85;27.08
584;HTU21D;27024;54.068;12.116;2023-03-16T15:22:34;10.85;26.64
584;HTU21D;27024;54.068;12.116;2023-03-16T15:25:33;10.85;26.99
584;HTU21D;27024;54.068;12.116;2023-03-16T15:30:59;10.67;30.09
584;HTU21D;27024;54.068;12.116;2023-03-16T15:33:26;10.69;29.24
584;HTU21D;27024;54.068;12.116;2023-03-16T15:35:56;10.48;29.82
584;HTU21D;27024;54.068;12.116;2023-03-16T15:38:26;10.39;29.97
584;HTU21D;27024;54.068;12.116;2023-03-16T15:40:54;10.56;30.42
584;HTU21D;27024;54.068;12.116;2023-03-16T15:43:25;10.39;30.64
584;HTU21D;27024;54.068;12.116;2023-03-16T15:45:55;10.55;30.09
584;HTU21D;27024;54.068;12.116;2023-03-16T15:48:23;10.62;30.12
584;HTU21D;27024;54.068;12.116;2023-03-16T15:50:53;10.35;30.48
584;HTU21D;27024;54.068;12.116;2023-03-16T15:53:37;10.22;30.32
584;HTU21D;27024;54.068;12.116;2023-03-16T15:56:08;10.09;31.13
584;HTU21D;27024;54.068;12.116;2023-03-16T15:58:36;9.96;31.17
584;HTU21D;27024;54.068;12.116;2023-03-16T16:01:06;9.49;30.79
584;HTU21D;27024;54.068;12.116;2023-03-16T16:03:34;9.29;31.99
584;HTU21D;27024;54.068;12.116;2023-03-16T16:06:01;9.17;32.04
584;HTU21D;27024;54.068;12.116;2023-03-16T16:08:27;9.07;32.63
584;HTU21D;27024;54.068;12.116;2023-03-16T16:10:54;8.94;33.20
584;HTU21D;27024;54.068;12.116;2023-03-16T16:13:27;8.90;33.79
584;HTU21D;27024;54.068;12.116;2023-03-16T16:16:12;8.75;34.28
584;HTU21D;27024;54.068;12.116;2023-03-16T16:18:39;8.65;35.18
584;HTU21D;27024;54.068;12.116;2023-03-16T16:21:19;8.61;34.70
584;HTU21D;27024;54.068;12.116;2023-03-16T16:23:53;8.48;36.33
584;HTU21D;27024;54.068;12.116;2023-03-16T16:26:27;8.58;35.42
584;HTU21D;27024;54.068;12.116;2023-03-16T16:29:18;8.35;36.42
584;HTU21D;27024;54.068;12.116;2023-03-16T16:31:47;8.18;36.69
584;HTU21D;27024;54.068;12.116;2023-03-16T16:34:17;8.18;36.27
584;HTU21D;27024;54.068;12.116;2023-03-16T16:36:44;8.26;37.10
584;HTU21D;27024;54.068;12.116;2023-03-16T16:39:11;8.14;36.59
584;HTU21D;27024;54.068;12.116;2023-03-16T16:41:39;8.16;35.56
584;HTU21D;27024;54.068;12.116;2023-03-16T16:44:17;8.15;36.22
584;HTU21D;27024;54.068;12.116;2023-03-16T16:46:47;7.97;35.43
584;HTU21D;27024;54.068;12.116;2023-03-16T16:49:19;7.98;36.12
584;HTU21D;27024;54.068;12.116;2023-03-16T16:51:47;7.84;35.10
584;HTU21D;27024;54.068;12.116;2023-03-16T16:54:26;7.87;35.85
584;HTU21D;27024;54.068;12.116;2023-03-16T16:56:54;7.81;35.33
584;HTU21D;27024;54.068;12.116;2023-03-16T16:59:30;7.99;35.46
584;HTU21D;27024;54.068;12.116;2023-03-16T17:01:59;7.75;36.01
584;HTU21D;27024;54.068;12.116;2023-03-16T17:04:28;7.75;37.58
584;HTU21D;27024;54.068;12.116;2023-03-16T17:06:57;7.59;36.62
584;HTU21D;27024;54.068;12.116;2023-03-16T17:09:26;7.62;36.93
584;HTU21D;27024;54.068;12.116;2023-03-16T17:11:54;7.58;37.32
584;HTU21D;27024;54.068;12.116;2023-03-16T17:14:24;7.55;38.02
584;HTU21D;27024;54.068;12.116;2023-03-16T17:16:53;7.41;38.33
584;HTU21D;27024;54.068;12.116;2023-03-16T17:19:24;7.45;38.78
584;HTU21D;27024;54.068;12.116;2023-03-16T17:21:52;7.31;39.41